Terminal Aerodrome Forecast
Issued by NWS Lake Charles, LA

Home | Current Version | Previous Version | Text Only | Print | Product List | Glossary On
Versions: 1 2 3 4 5 6 7 8 9 10 11 12 13 14 15 16 17 18 19
000
FTUS44 KLCH 271720
TAFLCH
TAF
KLCH 271720Z 2718/2818 18010KT P6SM VCSH BKN015 OVC025
      TEMPO 2718/2719 3SM SHRA BKN025 OVC050
     FM271900 17012G20KT P6SM VCSH SCT025 BKN035
      TEMPO 2719/2723 BKN025 OVC035
     FM280000 16010KT P6SM BKN015
     FM280400 16010KT 5SM BR OVC004=

USA.gov is the U.S. government's official web portal to all federal, state and local government web resources and services.